createdAt,value
2022-10-25T00:01:42.816Z,1.70
2022-10-25T00:04:13.306Z,1.52
2022-10-25T00:06:44.840Z,2.08
2022-10-25T00:09:14.943Z,2.08
2022-10-25T00:11:44.904Z,1.88
2022-10-25T00:14:19.880Z,2.25
2022-10-25T00:16:49.962Z,2.40
2022-10-25T00:19:19.814Z,2.20
2022-10-25T00:21:49.729Z,2.45
2022-10-25T00:24:19.917Z,2.63
2022-10-25T00:26:50.835Z,2.47
2022-10-25T00:29:21.107Z,2.13
2022-10-25T00:31:52.606Z,2.50
2022-10-25T00:34:22.651Z,2.00
2022-10-25T00:36:53.697Z,1.83
2022-10-25T00:39:23.831Z,1.80
2022-10-25T00:41:53.972Z,1.77
2022-10-25T00:44:42.472Z,1.60
2022-10-25T00:47:21.399Z,1.70
2022-10-25T00:50:11.750Z,1.55
2022-10-25T00:52:41.965Z,1.65
2022-10-25T00:55:12.806Z,1.60
2022-10-25T00:58:22.251Z,1.60
2022-10-25T01:00:53.363Z,1.58
2022-10-25T01:03:26.492Z,1.80
2022-10-25T01:05:57.000Z,1.58
2022-10-25T01:08:31.049Z,1.50
2022-10-25T01:11:01.945Z,1.40
2022-10-25T01:13:32.119Z,1.63
2022-10-25T01:16:13.144Z,2.08
2022-10-25T01:19:13.792Z,1.67
2022-10-25T01:21:50.799Z,1.88
2022-10-25T01:24:46.796Z,1.67
2022-10-25T01:27:27.700Z,1.95
2022-10-25T01:30:16.033Z,1.95
2022-10-25T01:32:46.503Z,1.77
2022-10-25T01:35:19.406Z,2.20
2022-10-25T01:38:08.006Z,2.35
2022-10-25T01:40:46.913Z,1.85
2022-10-25T01:43:27.124Z,1.88
2022-10-25T01:46:24.482Z,1.83
2022-10-25T01:49:08.755Z,2.33
2022-10-25T01:51:39.422Z,2.13
2022-10-25T01:54:23.226Z,2.28
2022-10-25T01:57:16.156Z,1.60
2022-10-25T02:00:11.705Z,1.80
2022-10-25T02:02:58.522Z,2.05
2022-10-25T02:05:42.015Z,1.77
2022-10-25T02:08:23.875Z,1.70
2022-10-25T02:11:04.339Z,1.48
2022-10-25T02:13:44.120Z,1.80
2022-10-25T02:16:22.170Z,1.77
2022-10-25T02:19:03.941Z,2.50
2022-10-25T02:21:35.880Z,1.83
2022-10-25T02:24:21.249Z,2.17
2022-10-25T02:26:51.806Z,1.95
2022-10-25T02:29:24.225Z,2.10
2022-10-25T02:31:57.656Z,1.80
2022-10-25T02:34:28.584Z,1.67
2022-10-25T02:37:07.049Z,1.35
2022-10-25T02:39:37.342Z,1.42
2022-10-25T02:42:09.973Z,1.75
2022-10-25T02:44:41.934Z,1.85
2022-10-25T02:47:17.442Z,1.42
2022-10-25T02:49:49.405Z,1.40
2022-10-25T02:52:22.244Z,1.48
2022-10-25T02:54:56.916Z,1.52
2022-10-25T02:57:39.520Z,1.20
2022-10-25T03:00:18.349Z,1.15
2022-10-25T03:02:48.744Z,1.60
2022-10-25T03:05:27.525Z,1.40
2022-10-25T03:07:57.671Z,1.35
2022-10-25T03:10:37.862Z,1.40
2022-10-25T03:13:08.844Z,1.48
2022-10-25T03:15:40.796Z,1.23
2022-10-25T03:18:11.507Z,1.05
2022-10-25T03:20:44.389Z,1.25
2022-10-25T03:23:14.818Z,1.00
2022-10-25T03:25:46.643Z,1.25
2022-10-25T03:28:19.211Z,1.10
2022-10-25T03:30:51.589Z,1.33
2022-10-25T03:36:00.598Z,1.25
2022-10-25T03:38:31.356Z,1.25
2022-10-25T03:41:04.654Z,1.30
2022-10-25T03:43:34.705Z,0.90
2022-10-25T03:46:06.535Z,0.98
2022-10-25T03:48:39.414Z,1.00
2022-10-25T03:51:12.399Z,1.00
2022-10-25T03:53:42.550Z,1.15
2022-10-25T03:56:14.664Z,1.00
2022-10-25T03:58:45.650Z,1.02
2022-10-25T04:01:15.964Z,1.10
2022-10-25T04:03:46.536Z,1.10
2022-10-25T04:06:21.857Z,0.85
2022-10-25T04:08:52.400Z,0.95
2022-10-25T04:11:22.693Z,1.10
2022-10-25T04:13:53.329Z,1.08
2022-10-25T04:16:24.607Z,0.90
2022-10-25T04:19:00.610Z,1.10
2022-10-25T04:21:31.130Z,1.00
2022-10-25T04:24:04.349Z,1.05
2022-10-25T04:26:39.370Z,0.57
2022-10-25T04:29:12.593Z,0.90
2022-10-25T04:31:46.128Z,1.02
2022-10-25T04:34:16.630Z,0.80
2022-10-25T04:36:51.395Z,0.73
2022-10-25T04:39:21.693Z,1.10
2022-10-25T04:41:58.358Z,0.70
2022-10-25T04:44:31.439Z,0.90
2022-10-25T04:47:04.739Z,0.73
2022-10-25T04:49:35.119Z,0.85
2022-10-25T04:52:05.212Z,0.70
2022-10-25T04:54:35.170Z,1.08
2022-10-25T04:57:05.153Z,1.00
2022-10-25T04:59:35.126Z,0.80
2022-10-25T05:02:05.284Z,0.80
2022-10-25T05:04:37.969Z,0.80
2022-10-25T05:07:08.239Z,1.00
2022-10-25T05:09:38.319Z,0.75
2022-10-25T05:12:09.408Z,0.50
2022-10-25T05:14:42.340Z,0.70
2022-10-25T05:17:12.998Z,0.70
2022-10-25T05:19:43.244Z,0.70
2022-10-25T05:22:17.452Z,0.80
2022-10-25T05:24:47.880Z,0.90
2022-10-25T05:27:20.779Z,0.90
2022-10-25T05:29:51.152Z,0.90
2022-10-25T05:32:24.681Z,0.90
2022-10-25T05:35:02.853Z,0.60
2022-10-25T05:37:33.289Z,0.60
2022-10-25T05:40:04.410Z,0.68
2022-10-25T05:42:37.526Z,0.60
2022-10-25T05:45:10.755Z,0.60
2022-10-25T05:47:41.037Z,0.57
2022-10-25T05:50:11.543Z,0.60
2022-10-25T05:52:45.197Z,0.60
2022-10-25T05:55:15.751Z,0.60
2022-10-25T05:57:52.020Z,0.55
2022-10-25T06:00:22.389Z,0.80
2022-10-25T06:02:53.644Z,0.43
2022-10-25T06:05:26.928Z,0.60
2022-10-25T06:07:59.688Z,0.50
2022-10-25T06:10:30.136Z,0.47
2022-10-25T06:13:06.111Z,0.60
2022-10-25T06:15:39.411Z,0.52
2022-10-25T06:18:11.319Z,0.65
2022-10-25T06:23:23.393Z,0.65
2022-10-25T06:26:01.944Z,0.80
2022-10-25T06:28:36.884Z,0.60
2022-10-25T06:31:18.134Z,0.60
2022-10-25T06:33:51.507Z,0.60
2022-10-25T06:36:23.143Z,0.68
2022-10-25T06:38:55.717Z,0.60
2022-10-25T06:41:37.269Z,0.40
2022-10-25T06:44:09.628Z,0.47
2022-10-25T06:47:11.583Z,0.70
2022-10-25T06:49:31.056Z,0.63
2022-10-25T06:52:01.539Z,0.65
2022-10-25T06:54:31.954Z,0.55
2022-10-25T06:57:03.222Z,0.70
2022-10-25T06:59:36.434Z,0.50
2022-10-25T07:02:07.200Z,0.50
2022-10-25T07:04:37.422Z,0.73
2022-10-25T07:07:07.636Z,0.60
2022-10-25T07:09:38.126Z,0.50
2022-10-25T07:12:12.457Z,0.50
2022-10-25T07:14:45.076Z,0.70
2022-10-25T07:17:15.411Z,0.80
2022-10-25T07:19:45.362Z,0.60
2022-10-25T07:22:15.435Z,0.70
2022-10-25T07:24:45.723Z,0.57
2022-10-25T07:27:18.765Z,0.80
2022-10-25T07:29:50.139Z,0.55
2022-10-25T07:32:24.555Z,0.88
2022-10-25T07:34:55.423Z,1.10
2022-10-25T07:37:25.610Z,0.88
2022-10-25T07:39:55.782Z,0.85
2022-10-25T07:42:25.774Z,1.40
2022-10-25T07:44:55.848Z,0.70
2022-10-25T07:47:28.051Z,0.85
2022-10-25T07:49:58.974Z,0.95
2022-10-25T07:52:28.990Z,1.15
2022-10-25T07:54:58.938Z,0.75
2022-10-25T07:57:31.408Z,0.80
2022-10-25T08:00:02.603Z,1.20
2022-10-25T08:02:34.090Z,1.05
2022-10-25T08:05:04.372Z,1.23
2022-10-25T08:07:34.467Z,1.10
2022-10-25T08:10:05.856Z,1.10
2022-10-25T08:12:36.095Z,1.17
2022-10-25T08:15:06.548Z,1.30
2022-10-25T08:17:36.678Z,1.20
2022-10-25T08:20:07.391Z,1.27
2022-10-25T08:22:37.815Z,1.15
2022-10-25T08:25:08.457Z,1.23
2022-10-25T08:27:38.608Z,1.15
2022-10-25T08:30:09.504Z,1.25
2022-10-25T08:32:40.472Z,1.45
2022-10-25T08:35:10.841Z,1.70
2022-10-25T08:37:41.141Z,1.10
2022-10-25T08:40:34.122Z,1.42
2022-10-25T08:43:07.221Z,1.45
2022-10-25T08:45:50.852Z,1.60
2022-10-25T08:48:22.617Z,1.30
2022-10-25T08:50:53.778Z,1.33
2022-10-25T08:53:46.583Z,1.20
2022-10-25T08:56:20.754Z,1.23
2022-10-25T08:59:01.447Z,1.58
2022-10-25T09:01:37.452Z,1.45
2022-10-25T09:04:07.900Z,1.42
2022-10-25T09:06:49.527Z,1.60
2022-10-25T09:09:44.348Z,1.48
2022-10-25T09:12:52.872Z,1.30
2022-10-25T09:15:37.872Z,1.40
2022-10-25T09:18:17.915Z,1.80
2022-10-25T09:20:52.290Z,1.65
2022-10-25T09:23:33.649Z,1.77
2022-10-25T09:26:06.718Z,1.60
2022-10-25T09:28:46.491Z,1.42
2022-10-25T09:31:19.531Z,1.40
2022-10-25T09:33:50.194Z,1.75
2022-10-25T09:36:20.571Z,1.67
2022-10-25T09:38:59.583Z,1.50
2022-10-25T09:41:47.325Z,1.83
2022-10-25T09:44:52.959Z,1.38
2022-10-25T09:48:05.609Z,1.73
2022-10-25T09:51:06.419Z,2.10
2022-10-25T09:53:38.988Z,1.90
2022-10-25T09:56:09.375Z,1.55
2022-10-25T09:58:43.575Z,1.70
2022-10-25T10:01:23.831Z,2.08
2022-10-25T10:03:55.833Z,1.58
2022-10-25T10:06:30.612Z,1.85
2022-10-25T10:09:08.222Z,1.70
2022-10-25T10:11:38.374Z,1.83
2022-10-25T10:14:30.024Z,1.90
2022-10-25T10:17:00.988Z,1.60
2022-10-25T10:19:34.521Z,2.10
2022-10-25T10:22:11.296Z,2.33
2022-10-25T10:24:45.377Z,1.58
2022-10-25T10:27:30.296Z,1.95
2022-10-25T10:30:02.295Z,1.70
2022-10-25T10:32:37.597Z,2.45
2022-10-25T10:35:09.690Z,2.28
2022-10-25T10:37:40.187Z,2.03
2022-10-25T10:40:13.658Z,1.92
2022-10-25T10:42:46.340Z,2.00
2022-10-25T10:45:18.804Z,1.90
2022-10-25T10:47:51.793Z,2.10
2022-10-25T10:50:25.600Z,2.00
2022-10-25T10:52:59.819Z,2.05
2022-10-25T10:55:34.660Z,1.75
2022-10-25T10:58:05.967Z,2.20
2022-10-25T11:00:36.427Z,2.00
2022-10-25T11:03:07.262Z,1.90
2022-10-25T11:05:41.788Z,2.20
2022-10-25T11:08:14.254Z,2.22
2022-10-25T11:10:49.617Z,2.38
2022-10-25T11:13:24.891Z,2.58
2022-10-25T11:16:16.792Z,2.70
2022-10-25T11:18:57.797Z,2.10
2022-10-25T11:22:01.272Z,2.50
2022-10-25T11:24:31.599Z,2.60
2022-10-25T11:27:19.680Z,2.15
2022-10-25T11:29:55.977Z,2.50
2022-10-25T11:32:53.095Z,2.17
2022-10-25T11:35:47.337Z,2.47
2022-10-25T11:38:29.511Z,3.08
2022-10-25T11:40:59.752Z,2.50
2022-10-25T11:43:54.213Z,2.40
2022-10-25T11:46:49.227Z,2.65
2022-10-25T11:49:28.273Z,2.70
2022-10-25T11:52:20.147Z,2.70
2022-10-25T11:55:06.471Z,2.40
2022-10-25T12:00:17.248Z,2.35
2022-10-25T12:03:28.785Z,2.90
2022-10-25T12:06:17.804Z,3.33
2022-10-25T12:09:06.262Z,3.05
2022-10-25T12:11:52.592Z,2.83
2022-10-25T12:14:30.008Z,3.05
2022-10-25T12:17:00.340Z,2.67
2022-10-25T12:19:34.395Z,2.80
2022-10-25T12:22:09.898Z,2.88
2022-10-25T12:24:55.912Z,2.42
2022-10-25T12:27:38.299Z,2.83
2022-10-25T12:30:19.510Z,2.83
2022-10-25T12:32:54.464Z,2.50
2022-10-25T12:35:32.666Z,2.70
2022-10-25T12:38:07.023Z,2.20
2022-10-25T12:40:41.546Z,2.40
2022-10-25T12:43:22.455Z,2.92
2022-10-25T12:46:22.258Z,2.75
2022-10-25T12:49:14.081Z,2.40
2022-10-25T12:52:11.625Z,2.70
2022-10-25T12:55:02.069Z,2.55
2022-10-25T12:57:44.722Z,2.50
2022-10-25T13:02:59.094Z,2.58
2022-10-25T13:05:53.397Z,2.40
2022-10-25T13:08:24.527Z,2.83
2022-10-25T13:11:05.067Z,2.50
2022-10-25T13:13:40.269Z,2.78
2022-10-25T13:16:12.064Z,2.83
2022-10-25T13:18:47.112Z,2.58
2022-10-25T13:21:55.341Z,2.92
2022-10-25T13:24:43.861Z,3.05
2022-10-25T13:27:17.303Z,3.15
2022-10-25T13:30:02.171Z,2.83
2022-10-25T13:32:42.453Z,3.05
2022-10-25T13:35:21.930Z,3.05
2022-10-25T13:38:21.958Z,2.80
2022-10-25T13:41:13.747Z,2.78
2022-10-25T13:44:06.217Z,2.83
2022-10-25T13:46:55.196Z,3.42
2022-10-25T13:49:43.480Z,3.10
2022-10-25T13:52:26.142Z,3.35
2022-10-25T13:54:59.585Z,3.20
2022-10-25T13:57:56.566Z,2.88
2022-10-25T14:00:37.668Z,3.17
2022-10-25T14:03:11.820Z,3.53
2022-10-25T14:05:57.251Z,4.03
2022-10-25T14:08:38.537Z,4.03
2022-10-25T14:11:19.149Z,5.55
2022-10-25T14:13:57.783Z,6.20
2022-10-25T14:16:39.568Z,5.95
2022-10-25T14:19:17.251Z,7.63
2022-10-25T14:21:51.959Z,9.15
2022-10-25T14:24:22.126Z,8.85
2022-10-25T14:27:05.014Z,9.07
2022-10-25T14:29:35.159Z,10.30
2022-10-25T14:32:05.236Z,10.25
2022-10-25T14:34:35.464Z,10.52
2022-10-25T14:37:05.604Z,11.15
2022-10-25T14:39:38.957Z,10.90
2022-10-25T14:42:23.484Z,11.23
2022-10-25T14:44:55.263Z,11.07
2022-10-25T14:47:33.040Z,11.23
2022-10-25T14:50:03.890Z,11.68
2022-10-25T14:52:34.233Z,12.60
2022-10-25T14:55:05.818Z,11.75
2022-10-25T14:57:37.463Z,12.15
2022-10-25T15:00:08.254Z,12.38
2022-10-25T15:02:41.190Z,13.48
2022-10-25T15:05:18.643Z,12.77
2022-10-25T15:07:49.098Z,13.00
2022-10-25T15:10:53.332Z,13.10
2022-10-25T15:13:25.038Z,13.00
2022-10-25T15:15:55.353Z,12.77
2022-10-25T15:18:31.245Z,13.35
2022-10-25T15:21:05.017Z,13.13
2022-10-25T15:23:35.839Z,13.30
2022-10-25T15:26:26.892Z,13.18
2022-10-25T15:29:01.843Z,12.52
2022-10-25T15:31:32.972Z,13.93
2022-10-25T15:34:12.625Z,13.35
2022-10-25T15:36:43.185Z,14.00
2022-10-25T15:39:29.001Z,13.00
2022-10-25T15:41:59.605Z,13.48
2022-10-25T15:44:29.725Z,14.00
2022-10-25T15:46:59.865Z,12.98
2022-10-25T15:49:32.600Z,14.35
2022-10-25T15:52:02.737Z,13.88
2022-10-25T15:54:35.670Z,14.13
2022-10-25T15:57:06.008Z,14.07
2022-10-25T15:59:39.059Z,13.05
2022-10-25T16:02:21.203Z,14.85
2022-10-25T16:04:51.450Z,13.88
2022-10-25T16:07:21.648Z,13.95
2022-10-25T16:09:51.593Z,13.20
2022-10-25T16:12:31.936Z,13.07
2022-10-25T16:15:02.307Z,13.90
2022-10-25T16:17:33.177Z,13.88
2022-10-25T16:20:03.737Z,13.98
2022-10-25T16:22:33.868Z,13.35
2022-10-25T16:25:03.833Z,13.20
2022-10-25T16:27:33.824Z,13.05
2022-10-25T16:30:03.853Z,13.32
2022-10-25T16:32:33.848Z,13.10
2022-10-25T16:35:03.943Z,13.27
2022-10-25T16:37:34.056Z,12.93
2022-10-25T16:40:08.220Z,13.27
2022-10-25T16:42:39.647Z,13.57
2022-10-25T16:45:34.671Z,12.90
2022-10-25T16:48:05.403Z,13.82
2022-10-25T16:50:35.721Z,12.90
2022-10-25T16:53:08.487Z,13.02
2022-10-25T16:55:38.809Z,12.27
2022-10-25T16:58:09.057Z,14.18
2022-10-25T17:00:39.175Z,13.82
2022-10-25T17:03:09.193Z,13.23
2022-10-25T17:05:41.001Z,12.80
2022-10-25T17:08:11.279Z,12.75
2022-10-25T17:10:46.925Z,12.57
2022-10-25T17:15:47.151Z,13.35
2022-10-25T17:18:24.998Z,13.13
2022-10-25T17:20:55.236Z,12.02
2022-10-25T17:23:26.185Z,13.00
2022-10-25T17:26:00.479Z,12.93
2022-10-25T17:28:31.563Z,12.85
2022-10-25T17:31:01.869Z,12.70
2022-10-25T17:33:34.862Z,12.32
2022-10-25T17:36:15.845Z,12.52
2022-10-25T17:38:46.236Z,12.77
2022-10-25T17:41:18.511Z,12.93
2022-10-25T17:43:51.998Z,12.30
2022-10-25T17:46:27.673Z,12.82
2022-10-25T17:48:59.772Z,12.80
2022-10-25T17:51:30.194Z,13.20
2022-10-25T17:54:00.195Z,12.23
2022-10-25T17:59:08.615Z,11.57
2022-10-25T18:01:38.946Z,12.35
2022-10-25T18:04:09.233Z,12.07
2022-10-25T18:06:40.238Z,11.93
2022-10-25T18:09:10.947Z,11.60
2022-10-25T18:11:41.227Z,11.60
2022-10-25T18:14:14.827Z,12.30
2022-10-25T18:16:44.959Z,11.75
2022-10-25T18:19:16.201Z,12.13
2022-10-25T18:21:46.413Z,10.85
2022-10-25T18:24:19.501Z,10.65
2022-10-25T18:26:51.764Z,11.48
2022-10-25T18:29:22.034Z,10.93
2022-10-25T18:31:52.642Z,11.23
2022-10-25T18:34:22.698Z,11.13
2022-10-25T18:36:56.423Z,10.70
2022-10-25T18:39:26.621Z,11.20
2022-10-25T18:41:56.896Z,11.02
2022-10-25T18:44:27.648Z,10.57
2022-10-25T18:46:57.652Z,10.80
2022-10-25T18:49:29.956Z,10.48
2022-10-25T18:52:00.809Z,10.48
2022-10-25T18:54:30.897Z,10.82
2022-10-25T18:57:00.888Z,10.80
2022-10-25T18:59:30.905Z,10.75
2022-10-25T19:02:05.105Z,9.85
2022-10-25T19:04:35.455Z,10.75
2022-10-25T19:07:11.624Z,10.18
2022-10-25T19:09:41.854Z,8.77
2022-10-25T19:12:15.009Z,9.60
2022-10-25T19:14:51.142Z,10.25
2022-10-25T19:17:27.304Z,10.07
2022-10-25T19:19:57.351Z,10.23
2022-10-25T19:22:28.485Z,10.18
2022-10-25T19:27:34.379Z,9.45
2022-10-25T19:30:05.073Z,9.82
2022-10-25T19:32:35.251Z,10.57
2022-10-25T19:35:05.412Z,9.20
2022-10-25T19:37:35.704Z,10.00
2022-10-25T19:40:18.238Z,9.35
2022-10-25T19:42:57.433Z,9.98
2022-10-25T19:45:28.060Z,9.18
2022-10-25T19:48:00.195Z,9.43
2022-10-25T19:50:30.426Z,9.60
2022-10-25T19:53:00.747Z,8.98
2022-10-25T19:55:30.730Z,9.85
2022-10-25T19:58:04.113Z,8.57
2022-10-25T20:00:34.539Z,8.68
2022-10-25T20:03:06.032Z,8.10
2022-10-25T20:05:36.176Z,7.93
2022-10-25T20:08:06.462Z,8.25
2022-10-25T20:10:36.611Z,8.52
2022-10-25T20:13:06.543Z,8.25
2022-10-25T20:15:39.118Z,8.93
2022-10-25T20:18:09.188Z,7.95
2022-10-25T20:20:52.987Z,7.60
2022-10-25T20:23:24.072Z,7.97
2022-10-25T20:25:54.087Z,7.65
2022-10-25T20:28:25.605Z,7.80
2022-10-25T20:30:55.785Z,7.50
2022-10-25T20:33:31.783Z,7.43
2022-10-25T20:36:05.665Z,7.38
2022-10-25T20:38:37.546Z,7.05
2022-10-25T20:41:09.131Z,7.30
2022-10-25T20:43:39.533Z,7.05
2022-10-25T20:46:24.095Z,6.78
2022-10-25T20:48:57.320Z,6.93
2022-10-25T20:51:27.555Z,7.57
2022-10-25T20:53:58.093Z,7.00
2022-10-25T20:56:28.095Z,6.22
2022-10-25T20:59:10.134Z,6.93
2022-10-25T21:01:41.551Z,6.28
2022-10-25T21:04:16.129Z,6.53
2022-10-25T21:06:50.342Z,6.70
2022-10-25T21:09:20.544Z,6.03
2022-10-25T21:11:50.826Z,6.47
2022-10-25T21:14:22.427Z,6.38
2022-10-25T21:16:58.882Z,6.63
2022-10-25T21:19:29.098Z,6.40
2022-10-25T21:21:59.198Z,6.22
2022-10-25T21:24:31.481Z,5.88
2022-10-25T21:27:04.974Z,6.15
2022-10-25T21:29:35.082Z,6.28
2022-10-25T21:32:05.132Z,6.57
2022-10-25T21:34:35.469Z,6.20
2022-10-25T21:37:05.620Z,5.85
2022-10-25T21:39:37.132Z,6.45
2022-10-25T21:42:07.295Z,5.28
2022-10-25T21:44:43.388Z,5.78
2022-10-25T21:47:14.422Z,6.10
2022-10-25T21:49:45.679Z,5.93
2022-10-25T21:52:15.919Z,5.65
2022-10-25T21:54:58.046Z,5.53
2022-10-25T21:57:28.303Z,5.95
2022-10-25T21:59:59.478Z,5.68
2022-10-25T22:02:30.173Z,5.97
2022-10-25T22:05:00.254Z,5.50
2022-10-25T22:07:30.604Z,6.07
2022-10-25T22:10:00.638Z,5.43
2022-10-25T22:12:30.591Z,5.70
2022-10-25T22:15:01.121Z,5.82
2022-10-25T22:17:33.857Z,6.03
2022-10-25T22:20:07.037Z,6.15
2022-10-25T22:22:37.266Z,5.60
2022-10-25T22:25:07.673Z,5.80
2022-10-25T22:27:37.765Z,5.50
2022-10-25T22:30:08.238Z,5.60
2022-10-25T22:32:51.009Z,6.60
2022-10-25T22:35:21.451Z,5.63
2022-10-25T22:37:51.673Z,5.93
2022-10-25T22:40:21.627Z,6.45
2022-10-25T22:42:51.557Z,6.68
2022-10-25T22:45:21.587Z,5.97
2022-10-25T22:47:53.711Z,5.70
2022-10-25T22:50:23.906Z,6.63
2022-10-25T22:52:53.894Z,6.93
2022-10-25T22:55:23.892Z,6.80
2022-10-25T22:57:55.545Z,6.80
2022-10-25T23:00:31.492Z,6.95
2022-10-25T23:03:03.546Z,7.20
2022-10-25T23:05:36.667Z,7.50
2022-10-25T23:08:06.947Z,7.90
2022-10-25T23:10:37.230Z,8.10
2022-10-25T23:13:07.238Z,8.75
2022-10-25T23:15:37.206Z,7.72
2022-10-25T23:18:07.266Z,7.90
2022-10-25T23:20:37.221Z,7.95
2022-10-25T23:23:07.736Z,8.05
2022-10-25T23:25:37.951Z,8.43
2022-10-25T23:28:07.892Z,8.52
2022-10-25T23:30:37.975Z,8.23
2022-10-25T23:33:08.167Z,9.18
2022-10-25T23:35:38.605Z,8.82
2022-10-25T23:38:14.946Z,8.25
2022-10-25T23:40:48.368Z,8.70
2022-10-25T23:43:18.544Z,8.43
2022-10-25T23:45:48.600Z,9.57
2022-10-25T23:48:20.016Z,8.45
2022-10-25T23:51:02.826Z,8.60
2022-10-25T23:53:33.119Z,8.52
2022-10-25T23:56:04.448Z,8.75
2022-10-25T23:58:34.679Z,8.27
